Time;durP1;ratioP1;P1;durP2;ratioP2;P2;SDS_P1;SDS_P2;PMS_P1;PMS_P2;Temp;Humidity;BMP_temperature;BMP_pressure;BME280_temperature;BME280_humidity;BME280_pressure;Samples;Min_cycle;Max_cycle;Signal;HPM_P1;HPM_P2
2023/01/01 00:00:42;;;;;;;26.30;18.67;;;12.80;99.90;;;;;;5087985;28;20518;-77
2023/01/01 00:03:09;;;;;;;33.53;20.65;;;12.80;99.90;;;;;;5070543;28;20048;-77
2023/01/01 00:05:38;;;;;;;25.95;19.67;;;12.80;99.90;;;;;;5087795;28;20044;-76
2023/01/01 00:08:06;;;;;;;29.77;20.33;;;12.80;99.90;;;;;;5086490;28;20048;-76
2023/01/01 00:10:33;;;;;;;27.65;20.38;;;12.80;99.90;;;;;;5076656;28;20135;-76
2023/01/01 00:13:01;;;;;;;30.25;21.63;;;12.70;99.90;;;;;;5084552;28;20048;-77
2023/01/01 00:15:28;;;;;;;26.77;20.85;;;12.70;99.90;;;;;;5089006;28;20097;-77
2023/01/01 00:17:56;;;;;;;25.52;19.08;;;12.70;99.90;;;;;;5088563;28;20087;-77
2023/01/01 00:20:24;;;;;;;34.78;21.33;;;12.70;99.90;;;;;;5088812;28;20037;-77
2023/01/01 00:22:53;;;;;;;32.13;22.27;;;12.70;99.90;;;;;;5070722;28;20508;-76
2023/01/01 00:25:22;;;;;;;37.17;24.92;;;12.70;99.90;;;;;;5088672;28;20052;-77
2023/01/01 00:27:50;;;;;;;47.88;27.15;;;12.70;99.90;;;;;;5070552;28;20040;-77
2023/01/01 00:30:18;;;;;;;47.20;31.35;;;12.70;99.90;;;;;;5088580;28;20071;-77
2023/01/01 00:32:45;;;;;;;44.17;29.88;;;12.60;99.90;;;;;;5077539;28;20446;-77
2023/01/01 00:35:13;;;;;;;43.55;31.30;;;12.60;99.90;;;;;;5068277;28;20041;-77
2023/01/01 00:37:40;;;;;;;51.90;33.67;;;12.60;99.90;;;;;;5068967;28;20121;-77
2023/01/01 00:40:12;;;;;;;46.92;31.58;;;12.60;99.90;;;;;;5087111;28;20105;-77
2023/01/01 00:42:40;;;;;;;44.08;28.85;;;12.60;99.90;;;;;;5088467;28;20063;-76
2023/01/01 00:45:08;;;;;;;47.13;31.05;;;12.60;99.90;;;;;;5070657;28;20054;-77
2023/01/01 00:47:37;;;;;;;49.15;29.45;;;12.60;99.90;;;;;;5086885;28;20040;-77
2023/01/01 00:50:05;;;;;;;44.47;29.33;;;12.60;99.90;;;;;;5087999;28;20127;-77
2023/01/01 00:52:32;;;;;;;42.47;29.60;;;12.60;99.90;;;;;;5088524;28;20040;-77
2023/01/01 00:55:00;;;;;;;43.60;30.00;;;12.60;99.90;;;;;;5088223;28;20044;-77
2023/01/01 00:57:28;;;;;;;46.33;32.33;;;12.60;99.90;;;;;;5086720;28;20534;-77
2023/01/01 00:59:55;;;;;;;43.83;32.05;;;12.50;99.90;;;;;;5089283;28;20091;-76
2023/01/01 01:02:23;;;;;;;43.45;31.67;;;12.50;99.90;;;;;;5090060;28;20064;-77
2023/01/01 01:04:50;;;;;;;49.58;33.38;;;12.50;99.90;;;;;;5090874;28;20217;-77
2023/01/01 01:07:18;;;;;;;48.83;33.47;;;12.60;99.90;;;;;;5090057;28;20079;-77
2023/01/01 01:09:45;;;;;;;46.70;32.55;;;12.50;99.90;;;;;;5073770;28;20055;-77
2023/01/01 01:12:13;;;;;;;44.03;31.42;;;12.60;99.90;;;;;;5090118;28;20081;-77
2023/01/01 01:14:40;;;;;;;42.00;30.10;;;12.60;99.90;;;;;;5073946;28;20063;-77
2023/01/01 01:17:08;;;;;;;49.60;30.02;;;12.50;99.90;;;;;;5090227;28;20538;-77
2023/01/01 01:19:36;;;;;;;41.05;28.95;;;12.60;99.90;;;;;;5098508;28;20047;-77
2023/01/01 01:22:03;;;;;;;41.38;27.33;;;12.60;99.90;;;;;;5086090;28;20055;-77
2023/01/01 01:24:31;;;;;;;36.88;28.13;;;12.60;99.90;;;;;;5073553;28;20052;-77
2023/01/01 01:26:58;;;;;;;41.42;26.80;;;12.60;99.90;;;;;;5091597;28;20043;-77
2023/01/01 01:29:26;;;;;;;36.53;25.50;;;12.60;99.90;;;;;;5090491;28;20048;-77
2023/01/01 01:31:53;;;;;;;40.60;25.65;;;12.60;99.90;;;;;;5091258;28;20063;-75
2023/01/01 01:34:21;;;;;;;40.42;25.65;;;12.60;99.90;;;;;;5091120;28;20061;-77
2023/01/01 01:36:53;;;;;;;33.47;26.20;;;12.60;99.90;;;;;;5089926;28;20044;-76
2023/01/01 01:39:21;;;;;;;35.17;23.20;;;12.60;99.90;;;;;;5089776;28;20117;-77
2023/01/01 01:41:49;;;;;;;34.00;23.98;;;12.70;99.90;;;;;;5081992;28;20063;-76
2023/01/01 01:45:01;;;;;;;32.78;22.65;;;12.70;99.90;;;;;;5090933;28;20123;-77
2023/01/01 01:47:57;;;;;;;31.67;21.60;;;12.70;99.90;;;;;;5087677;28;20059;-77
2023/01/01 01:50:31;;;;;;;29.92;20.45;;;12.70;99.90;;;;;;5071264;28;20044;-76
2023/01/01 01:53:09;;;;;;;41.92;23.08;;;12.70;99.90;;;;;;5085523;28;20056;-77
2023/01/01 01:55:42;;;;;;;35.80;21.85;;;12.60;99.90;;;;;;5089776;28;20071;-77
2023/01/01 01:58:12;;;;;;;32.33;20.02;;;12.60;99.90;;;;;;5089747;28;20048;-77
2023/01/01 02:00:40;;;;;;;27.08;19.95;;;12.60;99.90;;;;;;5089404;28;20040;-77
2023/01/01 02:03:21;;;;;;;24.95;16.98;;;12.70;99.90;;;;;;5086088;28;20055;-77
2023/01/01 02:05:50;;;;;;;21.70;15.70;;;12.70;99.90;;;;;;5090760;28;20036;-78
2023/01/01 02:08:20;;;;;;;28.45;17.48;;;12.70;99.90;;;;;;5052322;28;20041;-77
2023/01/01 02:10:48;;;;;;;26.83;17.50;;;12.80;99.90;;;;;;5069857;28;20055;-77
2023/01/01 02:13:16;;;;;;;26.70;17.33;;;12.70;99.90;;;;;;5087062;28;20397;-77
2023/01/01 02:15:52;;;;;;;25.88;16.33;;;12.80;99.90;;;;;;5089140;28;20151;-77
2023/01/01 02:18:32;;;;;;;27.50;16.58;;;12.80;99.90;;;;;;5089600;28;20124;-77
2023/01/01 02:21:07;;;;;;;24.13;16.63;;;12.80;99.90;;;;;;5089444;28;20863;-77
2023/01/01 02:23:58;;;;;;;26.48;17.98;;;12.80;99.90;;;;;;5090564;28;20383;-77
2023/01/01 02:26:37;;;;;;;27.50;18.27;;;12.80;99.90;;;;;;5090210;28;20095;-77
2023/01/01 02:29:19;;;;;;;20.13;14.85;;;12.80;99.90;;;;;;5088991;28;20054;-77
2023/01/01 02:31:56;;;;;;;23.38;15.90;;;12.80;99.90;;;;;;5090437;28;20101;-77
2023/01/01 02:34:26;;;;;;;;;;;12.80;99.90;;;;;;5089592;28;20346;-76
2023/01/01 02:36:57;;;;;;;23.73;16.25;;;12.90;99.90;;;;;;5088610;28;19927;-77
2023/01/01 02:39:30;;;;;;;29.20;18.83;;;12.80;99.90;;;;;;5088666;28;20059;-77
2023/01/01 02:42:00;;;;;;;27.70;19.17;;;12.70;99.90;;;;;;5088283;28;20507;-77
2023/01/01 02:44:31;;;;;;;26.45;17.05;;;12.70;99.90;;;;;;5088075;28;20072;-77
2023/01/01 02:47:09;;;;;;;28.90;19.10;;;12.60;99.90;;;;;;5071812;28;20119;-77
2023/01/01 02:49:43;;;;;;;30.58;19.83;;;12.60;99.90;;;;;;5089552;28;20048;-77
2023/01/01 02:52:35;;;;;;;32.42;20.50;;;12.50;99.90;;;;;;5071118;28;20043;-77
2023/01/01 02:55:23;;;;;;;33.33;22.67;;;12.40;99.90;;;;;;5089594;28;20056;-77
2023/01/01 03:00:18;;;;;;;31.02;20.58;;;12.30;99.90;;;;;;5089346;28;20052;-77
2023/01/01 03:01:01;;;;;;;27.77;19.33;;;12.10;99.90;;;;;;5067419;28;20044;-77
2023/01/01 03:03:47;;;;;;;25.50;18.65;;;12.00;99.90;;;;;;5064208;28;20040;-77
2023/01/01 03:06:43;;;;;;;31.55;19.63;;;12.00;99.90;;;;;;5071490;28;20145;-77
2023/01/01 03:09:27;;;;;;;33.38;19.63;;;11.90;99.90;;;;;;5077288;28;20048;-76
2023/01/01 03:12:42;;;;;;;30.48;19.38;;;11.90;99.90;;;;;;5074596;28;20192;-75
2023/01/01 03:15:19;;;;;;;26.65;19.38;;;11.80;99.90;;;;;;5073073;28;20200;-77
2023/01/01 03:17:50;;;;;;;31.77;20.88;;;11.80;99.90;;;;;;5095085;28;20361;-76
2023/01/01 03:20:24;;;;;;;35.00;21.75;;;11.80;99.90;;;;;;5084671;28;20044;-77
2023/01/01 03:22:54;;;;;;;32.05;21.30;;;11.70;99.90;;;;;;5085037;28;20054;-76
2023/01/01 03:25:27;;;;;;;44.47;21.52;;;11.60;99.90;;;;;;5071632;28;20501;-76
2023/01/01 03:28:09;;;;;;;30.02;19.73;;;11.60;99.90;;;;;;5107850;28;20040;-75
2023/01/01 03:30:39;;;;;;;32.45;19.70;;;11.60;99.90;;;;;;5093717;28;20474;-76
2023/01/01 03:33:17;;;;;;;27.92;18.95;;;11.60;99.90;;;;;;5087264;28;20047;-76
2023/01/01 03:35:58;;;;;;;26.98;18.40;;;11.60;99.90;;;;;;5078148;28;20052;-76
2023/01/01 03:38:37;;;;;;;30.48;18.60;;;11.60;99.90;;;;;;5073012;28;20052;-76
2023/01/01 03:41:30;;;;;;;27.95;18.15;;;11.60;99.90;;;;;;5068272;28;20059;-76
2023/01/01 03:44:04;;;;;;;30.65;18.88;;;11.60;99.90;;;;;;5046643;28;20402;-76
2023/01/01 03:46:34;;;;;;;48.28;20.52;;;11.60;99.90;;;;;;5077923;28;20040;-76
2023/01/01 03:49:05;;;;;;;33.47;20.30;;;11.60;99.90;;;;;;5089017;28;20039;-76
2023/01/01 03:51:32;;;;;;;27.27;18.95;;;11.50;99.90;;;;;;5086187;28;20084;-77
2023/01/01 03:54:27;;;;;;;33.75;20.48;;;11.50;99.90;;;;;;5085778;28;20055;-76
2023/01/01 03:57:19;;;;;;;26.42;18.70;;;11.50;99.90;;;;;;5086756;28;20421;-76
2023/01/01 03:59:52;;;;;;;30.55;19.05;;;11.50;99.90;;;;;;5085789;28;20105;-77
2023/01/01 04:02:25;;;;;;;28.50;20.25;;;11.50;99.90;;;;;;5085499;28;20133;-76
2023/01/01 04:04:52;;;;;;;26.52;16.35;;;11.50;99.90;;;;;;5086234;28;20044;-76
2023/01/01 04:07:20;;;;;;;24.20;17.55;;;11.50;99.90;;;;;;5086805;28;20157;-77
2023/01/01 04:09:50;;;;;;;31.70;17.02;;;11.50;99.90;;;;;;5083508;28;20063;-77
2023/01/01 04:12:18;;;;;;;26.55;16.00;;;11.50;99.90;;;;;;5066318;28;20139;-76
2023/01/01 04:14:47;;;;;;;26.85;17.67;;;11.40;99.90;;;;;;5073217;28;20044;-77
2023/01/01 04:17:14;;;;;;;50.90;17.95;;;11.50;99.90;;;;;;5087981;28;20088;-77
2023/01/01 04:19:42;;;;;;;21.58;14.52;;;11.60;99.90;;;;;;5087202;28;20490;-77
2023/01/01 04:22:10;;;;;;;24.98;16.98;;;11.60;99.90;;;;;;5087037;28;20127;-76
2023/01/01 04:24:38;;;;;;;22.52;16.85;;;11.70;99.90;;;;;;5087300;28;20131;-76
2023/01/01 04:27:05;;;;;;;29.58;17.60;;;11.70;99.90;;;;;;5088280;28;20044;-76
2023/01/01 04:29:33;;;;;;;25.30;16.20;;;11.80;99.90;;;;;;5088926;28;20044;-76
2023/01/01 04:32:00;;;;;;;27.58;16.88;;;11.80;99.90;;;;;;5088259;28;20346;-77
2023/01/01 04:34:28;;;;;;;25.25;16.23;;;11.90;99.90;;;;;;5088264;28;20109;-75
2023/01/01 04:36:55;;;;;;;29.42;17.55;;;11.90;99.90;;;;;;5091250;28;20481;-76
2023/01/01 04:39:22;;;;;;;22.85;14.88;;;12.00;99.90;;;;;;5092527;28;20044;-76
2023/01/01 04:41:50;;;;;;;24.92;17.10;;;12.00;99.90;;;;;;5092369;28;20044;-76
2023/01/01 04:44:18;;;;;;;23.00;16.13;;;12.10;99.90;;;;;;5092227;28;20040;-76
2023/01/01 04:46:45;;;;;;;25.75;17.70;;;12.10;99.90;;;;;;5092786;28;20040;-76
2023/01/01 04:49:13;;;;;;;26.17;16.08;;;12.10;99.90;;;;;;5091762;28;20097;-76
2023/01/01 04:51:40;;;;;;;25.67;17.60;;;12.10;99.90;;;;;;5091457;28;20051;-77
2023/01/01 04:54:07;;;;;;;23.80;15.25;;;12.10;99.90;;;;;;5092923;28;20402;-75
2023/01/01 04:56:35;;;;;;;25.73;16.60;;;12.20;99.90;;;;;;5091837;28;20044;-76
2023/01/01 04:59:03;;;;;;;27.30;17.42;;;12.20;99.90;;;;;;5091416;28;20135;-76
2023/01/01 05:01:30;;;;;;;24.13;15.88;;;12.20;99.90;;;;;;5092621;28;20047;-77
2023/01/01 05:03:58;;;;;;;24.10;16.67;;;12.20;99.90;;;;;;5091064;28;20063;-77
2023/01/01 05:06:26;;;;;;;25.23;15.30;;;12.20;99.90;;;;;;5090738;28;20144;-75
2023/01/01 05:08:55;;;;;;;25.90;17.50;;;12.20;99.90;;;;;;5089843;28;20050;-76
2023/01/01 05:11:25;;;;;;;23.95;14.52;;;12.20;99.90;;;;;;5091816;28;20047;-76
2023/01/01 05:13:55;;;;;;;22.65;14.85;;;12.20;99.90;;;;;;5091150;28;20572;-76
2023/01/01 05:16:25;;;;;;;46.67;18.05;;;12.10;99.90;;;;;;5070201;28;20070;-78
2023/01/01 05:18:52;;;;;;;31.65;15.32;;;12.10;99.90;;;;;;5086570;28;20382;-75
2023/01/01 05:21:30;;;;;;;23.50;14.35;;;12.10;99.90;;;;;;5091361;28;20475;-77
2023/01/01 05:24:09;;;;;;;39.92;16.45;;;12.00;99.90;;;;;;5091709;28;20048;-76
2023/01/01 05:26:42;;;;;;;30.23;17.45;;;12.10;99.90;;;;;;5054589;28;20127;-76
2023/01/01 05:29:10;;;;;;;30.00;18.80;;;12.10;99.90;;;;;;5087517;28;20155;-76
2023/01/01 05:31:42;;;;;;;32.10;20.23;;;12.00;99.90;;;;;;5092002;28;20036;-76
2023/01/01 05:34:09;;;;;;;29.42;21.20;;;12.00;99.90;;;;;;5090545;28;20059;-76
2023/01/01 05:36:37;;;;;;;27.85;17.27;;;12.00;99.90;;;;;;5090428;28;20058;-76
2023/01/01 05:39:11;;;;;;;29.92;17.55;;;12.00;99.90;;;;;;5090446;28;20052;-77
2023/01/01 05:41:40;;;;;;;32.13;17.77;;;12.00;99.90;;;;;;5091844;28;20052;-77
2023/01/01 05:44:08;;;;;;;28.05;17.58;;;12.00;99.90;;;;;;5091107;28;20547;-76
2023/01/01 05:46:36;;;;;;;26.77;17.67;;;12.00;99.90;;;;;;5091356;28;20047;-75
2023/01/01 05:49:04;;;;;;;33.80;18.13;;;12.00;99.90;;;;;;5090119;28;20718;-76
2023/01/01 05:51:32;;;;;;;35.17;18.85;;;12.00;99.90;;;;;;5073491;28;20048;-77
2023/01/01 05:53:58;;;;;;;25.67;17.77;;;12.00;99.90;;;;;;5071226;28;20040;-76
2023/01/01 05:56:26;;;;;;;30.42;17.75;;;12.00;99.90;;;;;;5089698;28;20115;-76
2023/01/01 05:58:55;;;;;;;27.55;17.92;;;12.00;99.90;;;;;;5089668;28;20147;-76
2023/01/01 06:01:24;;;;;;;22.88;15.30;;;12.00;99.90;;;;;;5091671;28;20036;-77
2023/01/01 06:03:54;;;;;;;26.50;17.83;;;12.00;99.90;;;;;;5089934;28;20040;-76
2023/01/01 06:06:27;;;;;;;29.23;17.92;;;12.00;99.90;;;;;;5089527;28;20640;-76
2023/01/01 06:08:57;;;;;;;24.90;15.57;;;12.10;99.90;;;;;;5091365;28;20036;-76
2023/01/01 06:11:26;;;;;;;28.60;15.70;;;12.10;99.90;;;;;;5090712;28;20047;-78
2023/01/01 06:13:57;;;;;;;30.40;17.00;;;12.10;99.90;;;;;;5075427;28;20042;-74
2023/01/01 06:16:26;;;;;;;24.95;16.95;;;12.10;99.90;;;;;;5088478;28;20055;-75
2023/01/01 06:18:54;;;;;;;27.75;17.92;;;12.20;99.90;;;;;;5088557;28;20056;-78
2023/01/01 06:21:27;;;;;;;26.35;17.15;;;12.20;99.90;;;;;;5072587;28;20044;-76
2023/01/01 06:23:56;;;;;;;29.10;16.48;;;12.20;99.90;;;;;;5090431;28;20494;-75
2023/01/01 06:26:27;;;;;;;20.48;15.35;;;12.20;99.90;;;;;;5089176;28;20071;-75
2023/01/01 06:28:55;;;;;;;24.63;15.27;;;12.30;99.90;;;;;;5090382;28;20055;-76
2023/01/01 06:31:23;;;;;;;24.67;14.55;;;12.40;99.90;;;;;;5090701;28;20071;-76
2023/01/01 06:33:51;;;;;;;24.55;15.80;;;12.50;99.90;;;;;;5090444;28;20036;-76
2023/01/01 06:36:21;;;;;;;30.75;16.30;;;12.70;99.90;;;;;;5089965;28;20043;-76
2023/01/01 06:38:51;;;;;;;26.50;16.02;;;12.90;99.90;;;;;;5089262;28;20039;-77
2023/01/01 06:41:24;;;;;;;28.17;15.50;;;13.20;99.90;;;;;;5089117;28;20485;-77
2023/01/01 06:43:53;;;;;;;24.98;16.02;;;13.50;99.90;;;;;;5089378;28;20470;-76
2023/01/01 06:46:29;;;;;;;25.73;16.40;;;13.70;99.90;;;;;;5090130;28;20563;-76
2023/01/01 06:49:04;;;;;;;24.90;14.57;;;14.00;99.90;;;;;;5090485;28;20145;-76
2023/01/01 06:51:35;;;;;;;21.85;15.07;;;14.10;99.90;;;;;;5089157;28;20040;-76
2023/01/01 06:54:03;;;;;;;25.60;16.70;;;14.30;99.90;;;;;;5088811;28;20044;-77
2023/01/01 06:56:31;;;;;;;24.95;15.23;;;14.70;99.90;;;;;;5088899;28;20509;-76
2023/01/01 06:58:59;;;;;;;24.90;15.00;;;15.10;99.90;;;;;;5088111;28;20518;-77
2023/01/01 07:01:29;;;;;;;32.10;16.10;;;15.50;99.90;;;;;;5088672;28;20064;-76
2023/01/01 07:04:02;;;;;;;19.98;13.10;;;15.90;99.90;;;;;;5071741;28;20565;-75
2023/01/01 07:06:31;;;;;;;23.02;15.52;;;16.50;99.90;;;;;;5088683;28;20040;-76
2023/01/01 07:08:59;;;;;;;19.63;14.13;;;17.00;99.90;;;;;;5090101;28;20052;-76
2023/01/01 07:11:27;;;;;;;21.92;13.25;;;17.40;99.90;;;;;;5088541;28;20131;-76
2023/01/01 07:13:55;;;;;;;22.23;15.07;;;17.80;99.90;;;;;;5088565;28;20474;-75
2023/01/01 07:16:23;;;;;;;24.08;13.82;;;18.00;99.90;;;;;;5088519;28;20044;-75
2023/01/01 07:18:51;;;;;;;17.75;13.27;;;18.10;99.90;;;;;;5089803;28;20048;-75
2023/01/01 07:21:31;;;;;;;18.00;12.85;;;18.30;99.90;;;;;;5088549;28;20494;-75
2023/01/01 07:24:01;;;;;;;22.23;14.43;;;18.60;99.90;;;;;;5071082;28;20076;-75
2023/01/01 07:26:30;;;;;;;20.05;12.75;;;19.20;99.90;;;;;;5088113;28;20063;-74
2023/01/01 07:28:58;;;;;;;18.88;12.73;;;19.90;99.90;;;;;;5087871;28;20059;-76
2023/01/01 07:31:32;;;;;;;19.70;12.10;;;20.60;99.90;;;;;;5089541;28;20048;-75
2023/01/01 07:34:00;;;;;;;16.75;12.02;;;21.40;99.90;;;;;;5089073;28;20051;-75
2023/01/01 07:36:27;;;;;;;17.98;12.52;;;22.00;99.90;;;;;;5087717;28;20090;-75
2023/01/01 07:38:55;;;;;;;18.70;11.70;;;22.50;99.90;;;;;;5089216;28;20494;-75
2023/01/01 07:41:22;;;;;;;18.55;12.63;;;22.90;99.90;;;;;;5088186;28;20076;-75
2023/01/01 07:43:51;;;;;;;18.10;12.15;;;23.20;99.90;;;;;;5089201;28;20131;-75
2023/01/01 07:46:18;;;;;;;15.25;10.45;;;23.50;99.90;;;;;;5088459;28;20044;-75
2023/01/01 07:48:46;;;;;;;16.83;12.45;;;23.80;99.90;;;;;;5088072;28;20082;-75
2023/01/01 07:51:14;;;;;;;14.88;10.75;;;24.00;99.90;;;;;;5089944;28;20454;-76
2023/01/01 07:53:41;;;;;;;17.10;11.27;;;24.00;99.90;;;;;;5087109;28;20477;-76
2023/01/01 07:56:09;;;;;;;15.38;10.80;;;23.90;99.90;;;;;;5087247;28;20534;-76
2023/01/01 07:58:40;;;;;;;15.70;9.85;;;23.80;99.90;;;;;;5089182;28;20422;-75
2023/01/01 08:01:13;;;;;;;14.10;10.82;;;23.50;99.90;;;;;;5085910;28;20101;-76
2023/01/01 08:03:41;;;;;;;16.42;11.15;;;23.30;99.90;;;;;;5087616;28;20044;-76
2023/01/01 08:06:11;;;;;;;19.65;10.73;;;23.00;99.90;;;;;;5084123;28;20105;-76
2023/01/01 08:08:39;;;;;;;17.95;10.98;;;22.80;99.90;;;;;;5089058;28;20043;-76
2023/01/01 08:11:07;;;;;;;15.00;10.73;;;22.50;99.90;;;;;;5093653;28;20036;-76
2023/01/01 08:13:35;;;;;;;13.48;9.98;;;22.40;99.90;;;;;;5092503;28;20130;-76
2023/01/01 08:16:04;;;;;;;19.95;12.40;;;22.20;99.90;;;;;;5091772;28;20857;-75
2023/01/01 08:18:32;;;;;;;14.82;10.20;;;22.20;99.90;;;;;;5091733;28;20047;-76
2023/01/01 08:21:00;;;;;;;14.57;10.07;;;22.20;99.90;;;;;;5093725;28;20086;-76
2023/01/01 08:23:28;;;;;;;14.23;9.60;;;22.10;99.90;;;;;;5093673;28;20170;-76
2023/01/01 08:26:00;;;;;;;27.85;9.65;;;22.10;99.90;;;;;;5091727;28;20062;-75
2023/01/01 08:28:29;;;;;;;16.75;10.65;;;22.00;99.90;;;;;;5091362;28;20044;-75
2023/01/01 08:30:58;;;;;;;15.63;9.75;;;22.00;99.90;;;;;;5087299;28;20101;-76
2023/01/01 08:33:28;;;;;;;15.88;10.13;;;21.90;99.90;;;;;;5099005;28;20047;-76
2023/01/01 08:35:55;;;;;;;13.50;9.45;;;21.80;99.90;;;;;;5090332;28;20044;-76
2023/01/01 08:38:23;;;;;;;18.98;9.45;;;21.60;99.90;;;;;;5108569;28;20904;-76
2023/01/01 08:40:51;;;;;;;16.50;10.30;;;21.50;99.90;;;;;;5099517;27;20501;-76
2023/01/01 08:43:18;;;;;;;18.10;9.90;;;21.20;99.90;;;;;;5100432;28;20058;-76
2023/01/01 08:45:46;;;;;;;13.80;9.40;;;21.00;99.90;;;;;;5090839;28;20040;-75
2023/01/01 08:48:14;;;;;;;16.40;10.07;;;20.90;99.90;;;;;;5098730;28;20047;-76
2023/01/01 08:50:41;;;;;;;14.48;9.40;;;20.70;99.90;;;;;;5108895;28;20096;-75
2023/01/01 08:53:09;;;;;;;14.88;10.50;;;20.60;99.90;;;;;;5081160;28;20402;-77
2023/01/01 08:55:36;;;;;;;16.45;10.00;;;20.50;99.90;;;;;;5080544;28;20074;-76
2023/01/01 08:58:07;;;;;;;15.02;9.80;;;20.40;99.90;;;;;;5103412;28;20054;-76
2023/01/01 09:00:35;;;;;;;15.57;10.75;;;20.40;99.90;;;;;;5103287;28;20043;-75
2023/01/01 09:03:02;;;;;;;14.20;10.85;;;20.40;99.90;;;;;;5107250;28;20731;-75
2023/01/01 09:05:30;;;;;;;16.00;9.93;;;20.50;99.90;;;;;;5092947;28;20040;-75
2023/01/01 09:07:57;;;;;;;14.95;10.00;;;20.60;99.90;;;;;;5101760;28;20036;-77
2023/01/01 09:10:25;;;;;;;17.23;11.98;;;20.60;99.90;;;;;;5081461;28;20105;-77
2023/01/01 09:12:52;;;;;;;15.75;10.93;;;20.60;99.90;;;;;;5099116;28;20028;-76
2023/01/01 09:15:21;;;;;;;17.83;13.18;;;20.60;99.90;;;;;;5086038;28;20071;-76
2023/01/01 09:17:51;;;;;;;15.63;10.88;;;20.50;99.90;;;;;;5072524;28;20052;-76
2023/01/01 09:20:18;;;;;;;19.33;11.43;;;20.30;99.90;;;;;;5075172;28;20048;-77
2023/01/01 09:22:46;;;;;;;14.00;9.93;;;20.00;99.90;;;;;;5069499;28;20134;-77
2023/01/01 09:25:15;;;;;;;14.57;9.85;;;19.80;99.90;;;;;;5075768;28;20051;-77
2023/01/01 09:27:44;;;;;;;16.20;11.52;;;19.60;99.90;;;;;;5088176;28;20052;-76
2023/01/01 09:30:12;;;;;;;12.77;9.55;;;19.40;99.90;;;;;;5085629;28;20044;-76
2023/01/01 09:32:40;;;;;;;11.60;7.97;;;19.40;99.90;;;;;;5070304;28;20090;-77
2023/01/01 09:35:09;;;;;;;12.50;8.27;;;19.30;99.90;;;;;;5075777;28;20044;-77
2023/01/01 09:37:36;;;;;;;10.45;7.43;;;19.20;99.90;;;;;;5090664;28;20070;-76
2023/01/01 09:40:04;;;;;;;9.20;6.95;;;19.10;99.90;;;;;;5088694;28;20113;-78
2023/01/01 09:42:49;;;;;;;8.73;6.28;;;19.00;99.90;;;;;;5090310;28;20109;-77
2023/01/01 09:45:29;;;;;;;9.50;6.65;;;19.00;99.90;;;;;;5081601;28;20536;-78
2023/01/01 09:48:03;;;;;;;13.38;7.80;;;19.10;99.90;;;;;;5090145;28;20115;-75
2023/01/01 09:50:40;;;;;;;10.82;7.47;;;19.30;99.90;;;;;;5074032;28;20044;-76
2023/01/01 09:53:33;;;;;;;11.38;7.15;;;19.70;99.90;;;;;;5069977;28;20063;-76
2023/01/01 09:56:03;;;;;;;8.23;5.85;;;19.80;99.90;;;;;;5083817;28;20151;-77
2023/01/01 09:58:33;;;;;;;10.93;7.85;;;19.70;99.90;;;;;;5089582;28;20060;-77
2023/01/01 10:01:46;;;;;;;11.25;7.30;;;19.70;99.90;;;;;;5069778;28;20055;-77
2023/01/01 10:04:50;;;;;;;11.43;7.10;;;19.70;99.90;;;;;;5074606;28;20112;-77
2023/01/01 10:07:27;;;;;;;8.43;6.03;;;19.80;99.90;;;;;;5067762;28;20052;-77
2023/01/01 10:10:00;;;;;;;8.48;5.72;;;19.90;99.90;;;;;;5075912;28;20470;-75
2023/01/01 10:13:07;;;;;;;11.60;7.10;;;20.20;99.90;;;;;;5071304;28;20037;-77
2023/01/01 10:15:39;;;;;;;9.32;5.95;;;20.10;99.90;;;;;;5052808;28;20052;-77
2023/01/01 10:18:20;;;;;;;9.45;6.32;;;20.00;99.90;;;;;;5088867;28;20044;-77
2023/01/01 10:21:08;;;;;;;7.88;5.70;;;20.00;99.90;;;;;;5070098;28;20520;-77
2023/01/01 10:23:51;;;;;;;7.57;5.63;;;20.20;99.90;;;;;;5069600;28;20142;-77
2023/01/01 10:26:21;;;;;;;7.60;4.93;;;20.40;99.90;;;;;;5083522;28;20044;-77
2023/01/01 10:29:00;;;;;;;8.10;5.18;;;20.60;99.90;;;;;;5086688;28;20465;-77
2023/01/01 10:31:31;;;;;;;6.63;4.50;;;20.80;99.90;;;;;;5069114;28;20045;-77
2023/01/01 10:34:11;;;;;;;8.25;5.15;;;21.00;99.90;;;;;;5083087;28;20138;-77
2023/01/01 10:36:38;;;;;;;8.77;6.20;;;21.10;99.90;;;;;;5083975;28;20093;-76
2023/01/01 10:39:08;;;;;;;12.63;6.18;;;21.10;99.90;;;;;;5083977;28;20443;-77
2023/01/01 10:41:35;;;;;;;8.68;5.30;;;20.90;99.90;;;;;;5067098;28;20071;-77
2023/01/01 10:44:04;;;;;;;7.75;5.28;;;20.60;99.90;;;;;;5066659;28;20068;-77
2023/01/01 10:46:35;;;;;;;8.63;6.05;;;20.30;99.90;;;;;;5084457;28;20592;-78
2023/01/01 10:49:11;;;;;;;12.10;6.85;;;20.00;99.90;;;;;;5083913;28;20048;-77
2023/01/01 10:51:50;;;;;;;8.93;5.15;;;19.70;99.90;;;;;;5068166;28;20467;-77
2023/01/01 10:54:30;;;;;;;7.20;4.78;;;19.70;99.90;;;;;;5052396;28;20410;-77
2023/01/01 10:57:19;;;;;;;6.53;4.30;;;19.80;99.90;;;;;;5088296;28;20109;-78
2023/01/01 10:59:46;;;;;;;6.43;3.72;;;19.90;99.90;;;;;;5087289;28;20054;-77
2023/01/01 11:02:24;;;;;;;8.85;4.53;;;20.10;99.90;;;;;;5109290;28;20501;-77
2023/01/01 11:05:11;;;;;;;7.47;5.38;;;20.20;99.90;;;;;;5107788;28;20044;-76
2023/01/01 11:07:43;;;;;;;9.38;4.30;;;20.30;99.90;;;;;;5089597;28;20143;-76
2023/01/01 11:10:18;;;;;;;5.47;3.85;;;20.50;99.90;;;;;;5071299;28;20048;-76
2023/01/01 11:12:46;;;;;;;6.63;5.22;;;20.60;99.90;;;;;;5087613;28;20054;-75
2023/01/01 11:15:40;;;;;;;5.93;3.65;;;20.60;99.90;;;;;;5089447;28;20050;-75
2023/01/01 11:18:19;;;;;;;7.20;4.50;;;20.60;99.90;;;;;;5087616;28;20074;-75
2023/01/01 11:20:55;;;;;;;8.55;5.65;;;20.40;99.90;;;;;;5087922;28;20080;-75
2023/01/01 11:23:33;;;;;;;7.05;5.28;;;20.30;99.90;;;;;;5087999;28;20133;-75
2023/01/01 11:26:03;;;;;;;8.13;4.90;;;20.30;99.90;;;;;;5087626;28;20398;-75
2023/01/01 11:28:35;;;;;;;6.32;4.13;;;20.40;99.90;;;;;;5087898;28;20098;-75
2023/01/01 11:31:05;;;;;;;5.28;3.83;;;20.50;99.90;;;;;;5087667;28;20055;-75
2023/01/01 11:33:51;;;;;;;9.25;5.45;;;20.30;99.90;;;;;;5070862;28;20127;-75
2023/01/01 11:36:28;;;;;;;9.05;5.85;;;20.10;99.90;;;;;;5087234;28;20058;-75
2023/01/01 11:39:23;;;;;;;4.95;4.13;;;20.10;99.90;;;;;;5087611;28;20071;-75
2023/01/01 11:41:54;;;;;;;4.70;3.70;;;20.20;99.90;;;;;;5088847;28;20082;-75
2023/01/01 11:44:28;;;;;;;6.03;3.58;;;20.20;99.90;;;;;;5070566;28;20059;-75
2023/01/01 11:46:57;;;;;;;7.55;5.60;;;20.30;99.90;;;;;;5070458;28;20044;-75
2023/01/01 11:49:27;;;;;;;6.50;4.60;;;20.50;99.90;;;;;;5087543;28;20477;-74
2023/01/01 11:51:56;;;;;;;6.72;3.90;;;20.60;99.90;;;;;;5087226;28;20077;-76
2023/01/01 11:54:37;;;;;;;7.47;4.53;;;20.50;99.90;;;;;;5053928;28;20374;-75
2023/01/01 11:57:15;;;;;;;5.18;3.97;;;20.60;99.90;;;;;;5088111;28;20094;-75
2023/01/01 11:59:51;;;;;;;5.45;3.72;;;20.60;99.90;;;;;;5087120;28;20060;-75
2023/01/01 12:02:28;;;;;;;;;;;20.60;99.90;;;;;;5088657;28;20058;-74
2023/01/01 12:05:15;;;;;;;6.97;4.20;;;20.40;99.90;;;;;;5087222;28;20277;-75
2023/01/01 12:07:43;;;;;;;5.90;3.88;;;20.20;99.90;;;;;;5087458;28;20089;-75
2023/01/01 12:10:26;;;;;;;5.40;3.53;;;20.00;99.90;;;;;;5070256;28;20518;-74
2023/01/01 12:13:18;;;;;;;5.57;4.18;;;19.80;99.90;;;;;;5083742;28;20756;-75
2023/01/01 12:15:46;;;;;;;7.40;4.50;;;19.80;99.90;;;;;;5088687;28;20074;-75
2023/01/01 12:18:43;;;;;;;4.80;3.70;;;20.00;99.90;;;;;;5088216;28;20048;-75
2023/01/01 12:21:18;;;;;;;7.28;3.60;;;19.90;99.90;;;;;;5087325;28;20048;-74
2023/01/01 12:23:46;;;;;;;6.05;4.55;;;19.60;99.90;;;;;;5086795;28;20051;-74
2023/01/01 12:26:38;;;;;;;10.52;6.43;;;19.50;99.90;;;;;;5069989;28;20475;-75
2023/01/01 12:29:27;;;;;;;13.00;8.20;;;19.50;99.90;;;;;;5070281;28;20044;-74
2023/01/01 12:32:06;;;;;;;9.40;6.70;;;19.60;99.90;;;;;;5086694;28;20097;-75
2023/01/01 12:34:37;;;;;;;11.95;5.80;;;19.60;99.90;;;;;;5070414;28;20470;-75
2023/01/01 12:37:34;;;;;;;9.48;5.53;;;19.60;99.90;;;;;;5053375;28;20160;-75
2023/01/01 12:40:20;;;;;;;7.97;5.00;;;19.50;99.90;;;;;;5082810;28;20387;-76
2023/01/01 12:43:22;;;;;;;7.55;4.90;;;19.40;99.90;;;;;;5086580;28;20401;-75
2023/01/01 12:46:05;;;;;;;7.05;3.75;;;19.50;99.90;;;;;;5087176;28;20047;-75
2023/01/01 12:48:44;;;;;;;4.22;3.20;;;19.60;99.90;;;;;;5070366;28;20056;-75
2023/01/01 12:51:33;;;;;;;5.90;3.33;;;19.50;99.90;;;;;;5070134;28;20402;-75
2023/01/01 12:54:06;;;;;;;5.97;4.38;;;19.50;99.90;;;;;;5086550;28;20058;-75
2023/01/01 12:57:18;;;;;;;4.10;3.30;;;19.60;99.90;;;;;;5088853;28;20157;-75
2023/01/01 12:59:49;;;;;;;12.52;5.28;;;19.70;99.90;;;;;;4961097;28;20053;-74
2023/01/01 13:02:22;;;;;;;9.02;4.47;;;19.70;99.90;;;;;;5056194;28;20507;-75